sensor_id;sensor_type;location;lat;lon;timestamp;P1;durP1;ratioP1;P2;durP2;ratioP2
23404;SDS011;11875;49.356;2.718;2023-08-07T00:00:57;5.28;;;1.73;;
23404;SDS011;11875;49.356;2.718;2023-08-07T00:03:23;4.18;;;1.65;;
23404;SDS011;11875;49.356;2.718;2023-08-07T00:05:48;8.02;;;1.80;;
23404;SDS011;11875;49.356;2.718;2023-08-07T00:08:14;4.18;;;1.50;;
23404;SDS011;11875;49.356;2.718;2023-08-07T00:10:40;5.07;;;1.70;;
23404;SDS011;11875;49.356;2.718;2023-08-07T00:13:05;4.63;;;1.70;;
23404;SDS011;11875;49.356;2.718;2023-08-07T00:15:31;4.95;;;1.60;;
23404;SDS011;11875;49.356;2.718;2023-08-07T00:17:58;8.00;;;1.90;;
23404;SDS011;11875;49.356;2.718;2023-08-07T00:20:24;8.13;;;1.67;;
23404;SDS011;11875;49.356;2.718;2023-08-07T00:22:49;6.95;;;1.90;;
23404;SDS011;11875;49.356;2.718;2023-08-07T00:25:15;7.07;;;1.88;;
23404;SDS011;11875;49.356;2.718;2023-08-07T00:27:41;4.60;;;1.50;;
23404;SDS011;11875;49.356;2.718;2023-08-07T00:30:06;5.15;;;1.40;;
23404;SDS011;11875;49.356;2.718;2023-08-07T00:32:32;7.43;;;1.58;;
23404;SDS011;11875;49.356;2.718;2023-08-07T00:34:58;3.95;;;1.45;;
23404;SDS011;11875;49.356;2.718;2023-08-07T00:37:23;5.22;;;1.50;;
23404;SDS011;11875;49.356;2.718;2023-08-07T00:39:49;5.65;;;2.28;;
23404;SDS011;11875;49.356;2.718;2023-08-07T00:42:14;3.85;;;1.30;;
23404;SDS011;11875;49.356;2.718;2023-08-07T00:44:40;4.85;;;2.05;;
23404;SDS011;11875;49.356;2.718;2023-08-07T00:47:06;3.83;;;1.60;;
23404;SDS011;11875;49.356;2.718;2023-08-07T00:49:31;9.20;;;1.80;;
23404;SDS011;11875;49.356;2.718;2023-08-07T00:51:58;5.70;;;1.65;;
23404;SDS011;11875;49.356;2.718;2023-08-07T00:54:24;7.47;;;1.90;;
23404;SDS011;11875;49.356;2.718;2023-08-07T00:56:50;6.15;;;2.03;;
23404;SDS011;11875;49.356;2.718;2023-08-07T00:59:16;5.63;;;1.88;;
23404;SDS011;11875;49.356;2.718;2023-08-07T01:01:43;7.80;;;1.88;;
23404;SDS011;11875;49.356;2.718;2023-08-07T01:04:09;7.57;;;1.90;;
23404;SDS011;11875;49.356;2.718;2023-08-07T01:06:35;4.20;;;1.83;;
23404;SDS011;11875;49.356;2.718;2023-08-07T01:09:00;5.95;;;2.03;;
23404;SDS011;11875;49.356;2.718;2023-08-07T01:16:50;9.13;;;2.22;;
23404;SDS011;11875;49.356;2.718;2023-08-07T01:19:24;5.93;;;1.73;;
23404;SDS011;11875;49.356;2.718;2023-08-07T01:22:07;9.30;;;1.85;;
23404;SDS011;11875;49.356;2.718;2023-08-07T01:24:34;6.97;;;2.13;;
23404;SDS011;11875;49.356;2.718;2023-08-07T01:27:04;6.15;;;1.70;;
23404;SDS011;11875;49.356;2.718;2023-08-07T01:29:43;8.32;;;1.70;;
23404;SDS011;11875;49.356;2.718;2023-08-07T01:35:20;5.38;;;1.70;;
23404;SDS011;11875;49.356;2.718;2023-08-07T01:37:50;7.25;;;2.25;;
23404;SDS011;11875;49.356;2.718;2023-08-07T01:40:19;3.67;;;1.90;;
23404;SDS011;11875;49.356;2.718;2023-08-07T01:42:46;6.85;;;1.88;;
23404;SDS011;11875;49.356;2.718;2023-08-07T01:45:12;10.90;;;2.13;;
23404;SDS011;11875;49.356;2.718;2023-08-07T01:47:38;7.82;;;2.13;;
23404;SDS011;11875;49.356;2.718;2023-08-07T01:50:04;4.88;;;2.25;;
23404;SDS011;11875;49.356;2.718;2023-08-07T01:52:30;5.15;;;1.98;;
23404;SDS011;11875;49.356;2.718;2023-08-07T01:54:55;12.65;;;2.30;;
23404;SDS011;11875;49.356;2.718;2023-08-07T01:57:21;7.32;;;2.20;;
23404;SDS011;11875;49.356;2.718;2023-08-07T01:59:46;6.47;;;2.28;;
23404;SDS011;11875;49.356;2.718;2023-08-07T02:02:12;7.43;;;1.90;;
23404;SDS011;11875;49.356;2.718;2023-08-07T02:04:37;5.43;;;2.13;;
23404;SDS011;11875;49.356;2.718;2023-08-07T02:07:03;5.50;;;1.70;;
23404;SDS011;11875;49.356;2.718;2023-08-07T02:09:29;7.70;;;1.73;;
23404;SDS011;11875;49.356;2.718;2023-08-07T02:11:54;7.47;;;1.83;;
23404;SDS011;11875;49.356;2.718;2023-08-07T02:14:20;6.25;;;1.67;;
23404;SDS011;11875;49.356;2.718;2023-08-07T02:16:46;5.50;;;2.05;;
23404;SDS011;11875;49.356;2.718;2023-08-07T02:19:12;7.22;;;2.08;;
23404;SDS011;11875;49.356;2.718;2023-08-07T02:21:38;8.98;;;2.08;;
23404;SDS011;11875;49.356;2.718;2023-08-07T02:24:03;6.88;;;2.10;;
23404;SDS011;11875;49.356;2.718;2023-08-07T02:26:29;4.72;;;1.92;;
23404;SDS011;11875;49.356;2.718;2023-08-07T02:28:55;6.78;;;2.08;;
23404;SDS011;11875;49.356;2.718;2023-08-07T02:31:20;12.07;;;2.85;;
23404;SDS011;11875;49.356;2.718;2023-08-07T02:33:46;3.83;;;1.80;;
23404;SDS011;11875;49.356;2.718;2023-08-07T02:36:11;7.80;;;2.05;;
23404;SDS011;11875;49.356;2.718;2023-08-07T02:38:37;6.28;;;2.10;;
23404;SDS011;11875;49.356;2.718;2023-08-07T02:41:03;12.13;;;2.35;;
23404;SDS011;11875;49.356;2.718;2023-08-07T02:43:28;7.47;;;2.53;;
23404;SDS011;11875;49.356;2.718;2023-08-07T02:45:54;5.60;;;2.25;;
23404;SDS011;11875;49.356;2.718;2023-08-07T02:48:19;6.53;;;2.05;;
23404;SDS011;11875;49.356;2.718;2023-08-07T02:50:45;6.03;;;1.98;;
23404;SDS011;11875;49.356;2.718;2023-08-07T02:53:11;7.57;;;2.45;;
23404;SDS011;11875;49.356;2.718;2023-08-07T02:55:37;9.38;;;3.33;;
23404;SDS011;11875;49.356;2.718;2023-08-07T02:58:02;4.45;;;2.03;;
23404;SDS011;11875;49.356;2.718;2023-08-07T03:00:28;4.40;;;1.80;;
23404;SDS011;11875;49.356;2.718;2023-08-07T03:02:54;4.50;;;2.13;;
23404;SDS011;11875;49.356;2.718;2023-08-07T03:05:19;8.27;;;2.60;;
23404;SDS011;11875;49.356;2.718;2023-08-07T03:07:45;6.05;;;2.20;;
23404;SDS011;11875;49.356;2.718;2023-08-07T03:10:10;4.47;;;2.03;;
23404;SDS011;11875;49.356;2.718;2023-08-07T03:12:36;7.82;;;2.03;;
23404;SDS011;11875;49.356;2.718;2023-08-07T03:15:03;10.23;;;2.70;;
23404;SDS011;11875;49.356;2.718;2023-08-07T03:17:30;6.22;;;2.17;;
23404;SDS011;11875;49.356;2.718;2023-08-07T03:19:55;10.45;;;2.20;;
23404;SDS011;11875;49.356;2.718;2023-08-07T03:22:21;8.25;;;2.40;;
23404;SDS011;11875;49.356;2.718;2023-08-07T03:24:47;6.53;;;1.88;;
23404;SDS011;11875;49.356;2.718;2023-08-07T03:27:13;5.65;;;2.20;;
23404;SDS011;11875;49.356;2.718;2023-08-07T03:29:39;6.05;;;2.08;;
23404;SDS011;11875;49.356;2.718;2023-08-07T03:32:04;5.03;;;2.22;;
23404;SDS011;11875;49.356;2.718;2023-08-07T03:34:30;4.07;;;2.15;;
23404;SDS011;11875;49.356;2.718;2023-08-07T03:36:55;8.95;;;2.05;;
23404;SDS011;11875;49.356;2.718;2023-08-07T03:39:21;8.40;;;1.85;;
23404;SDS011;11875;49.356;2.718;2023-08-07T03:41:47;11.02;;;2.60;;
23404;SDS011;11875;49.356;2.718;2023-08-07T03:44:12;7.65;;;2.45;;
23404;SDS011;11875;49.356;2.718;2023-08-07T03:46:38;9.82;;;2.42;;
23404;SDS011;11875;49.356;2.718;2023-08-07T03:49:03;3.95;;;1.95;;
23404;SDS011;11875;49.356;2.718;2023-08-07T03:51:29;9.02;;;2.30;;
23404;SDS011;11875;49.356;2.718;2023-08-07T03:53:55;8.43;;;2.03;;
23404;SDS011;11875;49.356;2.718;2023-08-07T03:56:21;10.13;;;2.63;;
23404;SDS011;11875;49.356;2.718;2023-08-07T03:58:46;8.20;;;2.72;;
23404;SDS011;11875;49.356;2.718;2023-08-07T04:01:14;6.60;;;2.28;;
23404;SDS011;11875;49.356;2.718;2023-08-07T04:03:40;16.23;;;2.70;;
23404;SDS011;11875;49.356;2.718;2023-08-07T04:06:05;7.90;;;2.35;;
23404;SDS011;11875;49.356;2.718;2023-08-07T04:08:31;8.23;;;2.30;;
23404;SDS011;11875;49.356;2.718;2023-08-07T04:11:00;8.30;;;2.55;;
23404;SDS011;11875;49.356;2.718;2023-08-07T04:13:26;8.35;;;3.25;;
23404;SDS011;11875;49.356;2.718;2023-08-07T04:15:52;12.38;;;2.22;;
23404;SDS011;11875;49.356;2.718;2023-08-07T04:18:18;14.65;;;2.75;;
23404;SDS011;11875;49.356;2.718;2023-08-07T04:20:53;16.98;;;2.58;;
23404;SDS011;11875;49.356;2.718;2023-08-07T04:23:20;6.85;;;2.45;;
23404;SDS011;11875;49.356;2.718;2023-08-07T04:25:53;6.30;;;2.45;;
23404;SDS011;11875;49.356;2.718;2023-08-07T04:28:19;6.32;;;2.78;;
23404;SDS011;11875;49.356;2.718;2023-08-07T04:30:45;10.52;;;2.67;;
23404;SDS011;11875;49.356;2.718;2023-08-07T04:33:15;10.35;;;2.78;;
23404;SDS011;11875;49.356;2.718;2023-08-07T04:35:41;18.40;;;2.78;;
23404;SDS011;11875;49.356;2.718;2023-08-07T04:38:06;6.68;;;2.50;;
23404;SDS011;11875;49.356;2.718;2023-08-07T04:40:32;10.90;;;2.65;;
23404;SDS011;11875;49.356;2.718;2023-08-07T04:42:57;8.65;;;2.55;;
23404;SDS011;11875;49.356;2.718;2023-08-07T04:45:23;8.85;;;2.67;;
23404;SDS011;11875;49.356;2.718;2023-08-07T04:47:49;14.48;;;2.55;;
23404;SDS011;11875;49.356;2.718;2023-08-07T04:50:14;9.50;;;2.40;;
23404;SDS011;11875;49.356;2.718;2023-08-07T04:52:40;9.75;;;2.30;;
23404;SDS011;11875;49.356;2.718;2023-08-07T04:55:06;12.65;;;2.63;;
23404;SDS011;11875;49.356;2.718;2023-08-07T04:57:31;11.73;;;2.83;;
23404;SDS011;11875;49.356;2.718;2023-08-07T04:59:57;8.40;;;2.45;;
23404;SDS011;11875;49.356;2.718;2023-08-07T05:02:22;8.73;;;2.65;;
23404;SDS011;11875;49.356;2.718;2023-08-07T05:04:48;11.48;;;2.35;;
23404;SDS011;11875;49.356;2.718;2023-08-07T05:07:14;13.80;;;2.40;;
23404;SDS011;11875;49.356;2.718;2023-08-07T05:09:40;13.57;;;2.85;;
23404;SDS011;11875;49.356;2.718;2023-08-07T05:12:05;12.77;;;2.95;;
23404;SDS011;11875;49.356;2.718;2023-08-07T05:14:32;12.13;;;2.78;;
23404;SDS011;11875;49.356;2.718;2023-08-07T05:16:57;9.25;;;2.70;;
23404;SDS011;11875;49.356;2.718;2023-08-07T05:19:24;6.55;;;2.58;;
23404;SDS011;11875;49.356;2.718;2023-08-07T05:21:50;7.80;;;2.55;;
23404;SDS011;11875;49.356;2.718;2023-08-07T05:24:16;5.70;;;2.70;;
23404;SDS011;11875;49.356;2.718;2023-08-07T05:26:42;19.77;;;3.00;;
23404;SDS011;11875;49.356;2.718;2023-08-07T05:29:08;8.60;;;3.45;;
23404;SDS011;11875;49.356;2.718;2023-08-07T05:31:34;12.32;;;2.75;;
23404;SDS011;11875;49.356;2.718;2023-08-07T05:34:00;8.02;;;2.78;;
23404;SDS011;11875;49.356;2.718;2023-08-07T05:36:25;10.05;;;2.72;;
23404;SDS011;11875;49.356;2.718;2023-08-07T05:38:51;9.40;;;2.58;;
23404;SDS011;11875;49.356;2.718;2023-08-07T05:41:16;10.38;;;2.97;;
23404;SDS011;11875;49.356;2.718;2023-08-07T05:43:42;15.43;;;2.78;;
23404;SDS011;11875;49.356;2.718;2023-08-07T05:46:08;11.15;;;3.28;;
23404;SDS011;11875;49.356;2.718;2023-08-07T05:48:34;12.15;;;3.08;;
23404;SDS011;11875;49.356;2.718;2023-08-07T05:51:00;9.27;;;2.67;;
23404;SDS011;11875;49.356;2.718;2023-08-07T05:53:26;14.00;;;2.40;;
23404;SDS011;11875;49.356;2.718;2023-08-07T05:55:51;8.32;;;2.38;;
23404;SDS011;11875;49.356;2.718;2023-08-07T05:58:17;6.35;;;2.95;;
23404;SDS011;11875;49.356;2.718;2023-08-07T06:00:43;13.75;;;3.25;;
23404;SDS011;11875;49.356;2.718;2023-08-07T06:03:09;10.70;;;3.08;;
23404;SDS011;11875;49.356;2.718;2023-08-07T06:05:35;13.27;;;2.63;;
23404;SDS011;11875;49.356;2.718;2023-08-07T06:08:00;9.98;;;3.25;;
23404;SDS011;11875;49.356;2.718;2023-08-07T06:10:26;9.20;;;2.80;;
23404;SDS011;11875;49.356;2.718;2023-08-07T06:12:52;20.45;;;3.65;;
23404;SDS011;11875;49.356;2.718;2023-08-07T06:15:18;11.65;;;3.28;;
23404;SDS011;11875;49.356;2.718;2023-08-07T06:17:44;13.82;;;3.55;;
23404;SDS011;11875;49.356;2.718;2023-08-07T06:20:09;11.73;;;3.50;;
23404;SDS011;11875;49.356;2.718;2023-08-07T06:22:36;10.45;;;3.65;;
23404;SDS011;11875;49.356;2.718;2023-08-07T06:25:02;11.13;;;3.58;;
23404;SDS011;11875;49.356;2.718;2023-08-07T06:27:29;12.40;;;3.60;;
23404;SDS011;11875;49.356;2.718;2023-08-07T06:29:55;10.05;;;3.55;;
23404;SDS011;11875;49.356;2.718;2023-08-07T06:32:21;8.48;;;3.70;;
23404;SDS011;11875;49.356;2.718;2023-08-07T06:34:46;11.90;;;4.28;;
23404;SDS011;11875;49.356;2.718;2023-08-07T06:37:12;8.98;;;4.55;;
23404;SDS011;11875;49.356;2.718;2023-08-07T06:39:38;9.48;;;4.95;;
23404;SDS011;11875;49.356;2.718;2023-08-07T06:42:03;9.82;;;5.07;;
23404;SDS011;11875;49.356;2.718;2023-08-07T06:44:29;14.23;;;5.97;;
23404;SDS011;11875;49.356;2.718;2023-08-07T06:46:55;13.10;;;5.20;;
23404;SDS011;11875;49.356;2.718;2023-08-07T06:49:20;12.63;;;4.32;;
23404;SDS011;11875;49.356;2.718;2023-08-07T06:51:46;9.55;;;4.57;;
23404;SDS011;11875;49.356;2.718;2023-08-07T06:54:11;15.15;;;5.20;;
23404;SDS011;11875;49.356;2.718;2023-08-07T06:56:37;11.00;;;4.30;;
23404;SDS011;11875;49.356;2.718;2023-08-07T06:59:05;9.55;;;4.47;;
23404;SDS011;11875;49.356;2.718;2023-08-07T07:01:31;15.65;;;4.57;;
23404;SDS011;11875;49.356;2.718;2023-08-07T07:03:57;10.57;;;4.50;;
23404;SDS011;11875;49.356;2.718;2023-08-07T07:06:22;10.05;;;4.68;;
23404;SDS011;11875;49.356;2.718;2023-08-07T07:08:50;7.00;;;4.13;;
23404;SDS011;11875;49.356;2.718;2023-08-07T07:11:19;7.03;;;4.22;;
23404;SDS011;11875;49.356;2.718;2023-08-07T07:13:45;10.82;;;4.80;;
23404;SDS011;11875;49.356;2.718;2023-08-07T07:16:11;10.55;;;3.88;;
23404;SDS011;11875;49.356;2.718;2023-08-07T07:18:38;10.77;;;4.25;;
23404;SDS011;11875;49.356;2.718;2023-08-07T07:21:04;7.32;;;3.72;;
23404;SDS011;11875;49.356;2.718;2023-08-07T07:23:29;5.70;;;3.72;;
23404;SDS011;11875;49.356;2.718;2023-08-07T07:25:55;8.20;;;3.70;;
23404;SDS011;11875;49.356;2.718;2023-08-07T07:28:22;8.73;;;3.70;;
23404;SDS011;11875;49.356;2.718;2023-08-07T07:30:49;8.38;;;3.45;;
23404;SDS011;11875;49.356;2.718;2023-08-07T07:33:14;6.47;;;3.50;;
23404;SDS011;11875;49.356;2.718;2023-08-07T07:35:40;6.88;;;2.97;;
23404;SDS011;11875;49.356;2.718;2023-08-07T07:38:07;6.78;;;3.22;;
23404;SDS011;11875;49.356;2.718;2023-08-07T07:40:33;6.10;;;2.97;;
23404;SDS011;11875;49.356;2.718;2023-08-07T07:42:59;7.97;;;2.88;;
23404;SDS011;11875;49.356;2.718;2023-08-07T07:45:24;4.05;;;2.55;;
23404;SDS011;11875;49.356;2.718;2023-08-07T07:47:50;5.60;;;2.58;;
23404;SDS011;11875;49.356;2.718;2023-08-07T07:50:16;4.82;;;2.10;;
23404;SDS011;11875;49.356;2.718;2023-08-07T07:52:41;4.05;;;2.30;;
23404;SDS011;11875;49.356;2.718;2023-08-07T07:55:08;5.68;;;2.42;;
23404;SDS011;11875;49.356;2.718;2023-08-07T07:57:34;4.32;;;2.03;;
23404;SDS011;11875;49.356;2.718;2023-08-07T08:00:00;4.95;;;2.30;;
23404;SDS011;11875;49.356;2.718;2023-08-07T08:02:26;5.72;;;2.30;;
23404;SDS011;11875;49.356;2.718;2023-08-07T08:04:52;3.75;;;2.13;;
23404;SDS011;11875;49.356;2.718;2023-08-07T08:07:17;7.72;;;1.80;;
23404;SDS011;11875;49.356;2.718;2023-08-07T08:09:43;5.25;;;2.03;;
23404;SDS011;11875;49.356;2.718;2023-08-07T08:12:09;3.90;;;1.88;;
23404;SDS011;11875;49.356;2.718;2023-08-07T08:14:35;3.78;;;1.85;;
23404;SDS011;11875;49.356;2.718;2023-08-07T08:17:01;4.00;;;1.85;;
23404;SDS011;11875;49.356;2.718;2023-08-07T08:19:26;4.75;;;1.77;;
23404;SDS011;11875;49.356;2.718;2023-08-07T08:21:52;3.40;;;1.85;;
23404;SDS011;11875;49.356;2.718;2023-08-07T08:24:18;4.20;;;1.80;;
23404;SDS011;11875;49.356;2.718;2023-08-07T08:26:43;3.22;;;1.70;;
23404;SDS011;11875;49.356;2.718;2023-08-07T08:29:09;2.45;;;1.50;;
23404;SDS011;11875;49.356;2.718;2023-08-07T08:31:34;1.65;;;1.40;;
23404;SDS011;11875;49.356;2.718;2023-08-07T08:34:00;2.90;;;1.63;;
23404;SDS011;11875;49.356;2.718;2023-08-07T08:36:26;2.65;;;1.70;;
23404;SDS011;11875;49.356;2.718;2023-08-07T08:38:51;5.20;;;1.60;;
23404;SDS011;11875;49.356;2.718;2023-08-07T08:41:17;2.25;;;1.45;;
23404;SDS011;11875;49.356;2.718;2023-08-07T08:43:45;5.05;;;1.48;;
23404;SDS011;11875;49.356;2.718;2023-08-07T08:46:12;10.75;;;2.90;;
23404;SDS011;11875;49.356;2.718;2023-08-07T08:48:40;5.13;;;1.88;;
23404;SDS011;11875;49.356;2.718;2023-08-07T08:51:11;2.78;;;1.67;;
23404;SDS011;11875;49.356;2.718;2023-08-07T08:53:38;2.20;;;1.30;;
23404;SDS011;11875;49.356;2.718;2023-08-07T08:56:04;6.28;;;1.60;;
23404;SDS011;11875;49.356;2.718;2023-08-07T08:58:31;2.25;;;1.50;;
23404;SDS011;11875;49.356;2.718;2023-08-07T09:00:57;2.38;;;1.50;;
23404;SDS011;11875;49.356;2.718;2023-08-07T09:03:24;3.05;;;1.30;;
23404;SDS011;11875;49.356;2.718;2023-08-07T09:05:50;1.50;;;1.10;;
23404;SDS011;11875;49.356;2.718;2023-08-07T09:08:23;3.92;;;0.93;;
23404;SDS011;11875;49.356;2.718;2023-08-07T09:10:52;2.17;;;1.00;;
23404;SDS011;11875;49.356;2.718;2023-08-07T09:13:18;1.88;;;0.98;;
23404;SDS011;11875;49.356;2.718;2023-08-07T09:15:47;2.75;;;1.02;;
23404;SDS011;11875;49.356;2.718;2023-08-07T09:18:15;1.73;;;1.20;;
23404;SDS011;11875;49.356;2.718;2023-08-07T09:20:43;3.30;;;1.15;;
23404;SDS011;11875;49.356;2.718;2023-08-07T09:23:08;3.30;;;1.50;;
23404;SDS011;11875;49.356;2.718;2023-08-07T09:25:34;3.53;;;1.10;;
23404;SDS011;11875;49.356;2.718;2023-08-07T09:28:03;1.98;;;1.10;;
23404;SDS011;11875;49.356;2.718;2023-08-07T09:30:30;1.63;;;1.27;;
23404;SDS011;11875;49.356;2.718;2023-08-07T09:32:57;1.80;;;0.90;;
23404;SDS011;11875;49.356;2.718;2023-08-07T09:35:24;2.40;;;1.33;;
23404;SDS011;11875;49.356;2.718;2023-08-07T09:37:50;3.33;;;1.30;;
23404;SDS011;11875;49.356;2.718;2023-08-07T09:40:17;3.58;;;1.20;;
23404;SDS011;11875;49.356;2.718;2023-08-07T09:42:43;2.13;;;1.02;;
23404;SDS011;11875;49.356;2.718;2023-08-07T09:45:18;2.35;;;1.00;;
23404;SDS011;11875;49.356;2.718;2023-08-07T09:48:48;1.20;;;0.95;;
23404;SDS011;11875;49.356;2.718;2023-08-07T09:50:50;3.35;;;1.00;;
23404;SDS011;11875;49.356;2.718;2023-08-07T09:53:15;2.40;;;1.10;;
23404;SDS011;11875;49.356;2.718;2023-08-07T09:55:41;1.95;;;0.93;;
23404;SDS011;11875;49.356;2.718;2023-08-07T09:58:08;4.70;;;1.13;;
23404;SDS011;11875;49.356;2.718;2023-08-07T10:00:36;1.48;;;0.95;;
23404;SDS011;11875;49.356;2.718;2023-08-07T10:03:02;2.33;;;1.05;;
23404;SDS011;11875;49.356;2.718;2023-08-07T10:05:29;2.17;;;1.00;;
23404;SDS011;11875;49.356;2.718;2023-08-07T10:07:55;1.52;;;1.00;;
23404;SDS011;11875;49.356;2.718;2023-08-07T10:10:22;3.03;;;0.82;;
23404;SDS011;11875;49.356;2.718;2023-08-07T10:12:50;1.80;;;1.10;;
23404;SDS011;11875;49.356;2.718;2023-08-07T10:15:17;1.58;;;1.00;;
23404;SDS011;11875;49.356;2.718;2023-08-07T10:17:43;3.00;;;0.90;;
23404;SDS011;11875;49.356;2.718;2023-08-07T10:20:09;0.88;;;0.75;;
23404;SDS011;11875;49.356;2.718;2023-08-07T10:22:35;1.92;;;1.20;;
23404;SDS011;11875;49.356;2.718;2023-08-07T10:25:04;3.30;;;1.10;;
23404;SDS011;11875;49.356;2.718;2023-08-07T10:27:32;1.23;;;0.90;;
23404;SDS011;11875;49.356;2.718;2023-08-07T10:30:01;1.48;;;0.80;;
23404;SDS011;11875;49.356;2.718;2023-08-07T10:32:30;1.20;;;1.10;;
23404;SDS011;11875;49.356;2.718;2023-08-07T10:34:57;3.00;;;1.08;;
23404;SDS011;11875;49.356;2.718;2023-08-07T10:37:32;2.45;;;1.23;;
23404;SDS011;11875;49.356;2.718;2023-08-07T10:40:12;3.15;;;1.10;;
23404;SDS011;11875;49.356;2.718;2023-08-07T10:42:51;2.50;;;1.20;;
23404;SDS011;11875;49.356;2.718;2023-08-07T10:45:17;4.60;;;1.70;;
23404;SDS011;11875;49.356;2.718;2023-08-07T10:47:49;1.70;;;1.10;;
23404;SDS011;11875;49.356;2.718;2023-08-07T10:50:32;1.05;;;0.80;;
23404;SDS011;11875;49.356;2.718;2023-08-07T10:52:59;2.58;;;1.13;;
23404;SDS011;11875;49.356;2.718;2023-08-07T10:55:42;4.53;;;1.52;;
23404;SDS011;11875;49.356;2.718;2023-08-07T10:58:29;2.33;;;1.25;;
23404;SDS011;11875;49.356;2.718;2023-08-07T11:03:45;3.85;;;1.02;;
23404;SDS011;11875;49.356;2.718;2023-08-07T11:06:13;2.17;;;1.27;;
23404;SDS011;11875;49.356;2.718;2023-08-07T11:08:38;2.58;;;0.90;;
23404;SDS011;11875;49.356;2.718;2023-08-07T11:11:05;3.03;;;1.10;;
23404;SDS011;11875;49.356;2.718;2023-08-07T11:13:31;2.92;;;0.88;;
23404;SDS011;11875;49.356;2.718;2023-08-07T11:15:57;1.40;;;0.88;;
23404;SDS011;11875;49.356;2.718;2023-08-07T11:18:24;1.55;;;0.80;;
23404;SDS011;11875;49.356;2.718;2023-08-07T11:20:50;1.85;;;1.00;;
23404;SDS011;11875;49.356;2.718;2023-08-07T11:23:22;2.75;;;0.80;;
23404;SDS011;11875;49.356;2.718;2023-08-07T11:25:49;4.70;;;1.10;;
23404;SDS011;11875;49.356;2.718;2023-08-07T11:28:17;2.00;;;0.80;;
23404;SDS011;11875;49.356;2.718;2023-08-07T11:30:44;1.15;;;0.77;;
23404;SDS011;11875;49.356;2.718;2023-08-07T11:33:12;1.25;;;0.90;;
23404;SDS011;11875;49.356;2.718;2023-08-07T11:35:40;1.63;;;0.70;;
23404;SDS011;11875;49.356;2.718;2023-08-07T11:38:09;1.40;;;1.00;;
23404;SDS011;11875;49.356;2.718;2023-08-07T11:40:35;3.63;;;1.00;;
23404;SDS011;11875;49.356;2.718;2023-08-07T11:43:01;1.10;;;0.82;;
23404;SDS011;11875;49.356;2.718;2023-08-07T11:45:26;1.40;;;0.80;;
23404;SDS011;11875;49.356;2.718;2023-08-07T11:47:53;1.75;;;1.00;;
23404;SDS011;11875;49.356;2.718;2023-08-07T11:50:21;3.20;;;0.90;;
23404;SDS011;11875;49.356;2.718;2023-08-07T11:52:47;3.40;;;1.15;;
23404;SDS011;11875;49.356;2.718;2023-08-07T11:55:17;3.85;;;1.20;;
23404;SDS011;11875;49.356;2.718;2023-08-07T11:57:44;4.07;;;1.30;;
23404;SDS011;11875;49.356;2.718;2023-08-07T12:00:13;2.05;;;1.00;;
23404;SDS011;11875;49.356;2.718;2023-08-07T12:02:43;1.80;;;0.95;;
23404;SDS011;11875;49.356;2.718;2023-08-07T12:05:09;1.02;;;0.93;;
23404;SDS011;11875;49.356;2.718;2023-08-07T12:07:38;1.00;;;0.80;;
23404;SDS011;11875;49.356;2.718;2023-08-07T12:10:06;1.42;;;1.00;;
23404;SDS011;11875;49.356;2.718;2023-08-07T12:12:34;1.83;;;0.80;;
23404;SDS011;11875;49.356;2.718;2023-08-07T12:15:00;1.35;;;1.08;;
23404;SDS011;11875;49.356;2.718;2023-08-07T12:17:26;4.38;;;1.10;;
23404;SDS011;11875;49.356;2.718;2023-08-07T12:19:56;2.75;;;1.05;;
23404;SDS011;11875;49.356;2.718;2023-08-07T12:22:22;2.20;;;0.98;;
23404;SDS011;11875;49.356;2.718;2023-08-07T12:24:48;1.23;;;0.80;;
23404;SDS011;11875;49.356;2.718;2023-08-07T12:27:13;2.17;;;1.20;;
23404;SDS011;11875;49.356;2.718;2023-08-07T12:29:39;1.77;;;0.90;;
23404;SDS011;11875;49.356;2.718;2023-08-07T12:32:05;2.35;;;0.85;;
23404;SDS011;11875;49.356;2.718;2023-08-07T12:34:31;2.50;;;0.90;;
23404;SDS011;11875;49.356;2.718;2023-08-07T12:36:57;2.47;;;1.08;;
23404;SDS011;11875;49.356;2.718;2023-08-07T12:39:22;0.98;;;0.70;;
23404;SDS011;11875;49.356;2.718;2023-08-07T12:41:48;2.42;;;0.90;;
23404;SDS011;11875;49.356;2.718;2023-08-07T12:44:14;2.78;;;0.70;;
23404;SDS011;11875;49.356;2.718;2023-08-07T12:46:40;4.05;;;2.67;;
23404;SDS011;11875;49.356;2.718;2023-08-07T12:49:08;0.90;;;0.80;;
23404;SDS011;11875;49.356;2.718;2023-08-07T12:51:34;1.15;;;0.80;;
23404;SDS011;11875;49.356;2.718;2023-08-07T12:54:00;1.08;;;0.88;;
23404;SDS011;11875;49.356;2.718;2023-08-07T12:56:25;1.35;;;0.77;;
23404;SDS011;11875;49.356;2.718;2023-08-07T12:58:51;1.58;;;1.00;;
23404;SDS011;11875;49.356;2.718;2023-08-07T13:01:16;1.48;;;1.00;;
23404;SDS011;11875;49.356;2.718;2023-08-07T13:03:42;1.02;;;0.75;;
23404;SDS011;11875;49.356;2.718;2023-08-07T13:06:07;3.22;;;0.95;;
23404;SDS011;11875;49.356;2.718;2023-08-07T13:08:36;2.53;;;0.82;;
23404;SDS011;11875;49.356;2.718;2023-08-07T13:11:02;5.10;;;1.30;;
23404;SDS011;11875;49.356;2.718;2023-08-07T13:13:28;1.15;;;0.77;;
23404;SDS011;11875;49.356;2.718;2023-08-07T13:15:53;1.63;;;0.70;;
23404;SDS011;11875;49.356;2.718;2023-08-07T13:18:19;3.78;;;1.20;;
23404;SDS011;11875;49.356;2.718;2023-08-07T13:20:45;4.22;;;1.00;;
23404;SDS011;11875;49.356;2.718;2023-08-07T13:23:10;2.25;;;0.80;;
23404;SDS011;11875;49.356;2.718;2023-08-07T13:25:37;1.10;;;0.70;;
23404;SDS011;11875;49.356;2.718;2023-08-07T13:28:03;2.95;;;1.10;;
23404;SDS011;11875;49.356;2.718;2023-08-07T13:30:31;1.63;;;1.00;;
23404;SDS011;11875;49.356;2.718;2023-08-07T13:33:00;0.93;;;0.82;;
23404;SDS011;11875;49.356;2.718;2023-08-07T13:35:26;1.73;;;0.90;;
23404;SDS011;11875;49.356;2.718;2023-08-07T13:37:52;1.33;;;0.93;;
23404;SDS011;11875;49.356;2.718;2023-08-07T13:40:17;2.17;;;0.98;;
23404;SDS011;11875;49.356;2.718;2023-08-07T13:42:43;1.40;;;1.00;;
23404;SDS011;11875;49.356;2.718;2023-08-07T13:45:11;1.38;;;1.20;;
23404;SDS011;11875;49.356;2.718;2023-08-07T13:47:38;1.52;;;0.90;;
23404;SDS011;11875;49.356;2.718;2023-08-07T13:50:04;2.65;;;1.10;;
23404;SDS011;11875;49.356;2.718;2023-08-07T13:52:32;1.35;;;0.85;;
23404;SDS011;11875;49.356;2.718;2023-08-07T13:55:00;2.60;;;0.98;;
23404;SDS011;11875;49.356;2.718;2023-08-07T13:57:26;2.85;;;1.00;;
23404;SDS011;11875;49.356;2.718;2023-08-07T13:59:51;2.92;;;1.00;;
23404;SDS011;11875;49.356;2.718;2023-08-07T14:02:19;1.60;;;1.00;;
23404;SDS011;11875;49.356;2.718;2023-08-07T14:04:44;2.42;;;1.00;;
23404;SDS011;11875;49.356;2.718;2023-08-07T14:07:10;3.00;;;1.58;;
23404;SDS011;11875;49.356;2.718;2023-08-07T14:09:37;2.67;;;1.02;;
23404;SDS011;11875;49.356;2.718;2023-08-07T14:12:02;1.50;;;0.80;;
23404;SDS011;11875;49.356;2.718;2023-08-07T14:14:28;3.10;;;0.90;;
23404;SDS011;11875;49.356;2.718;2023-08-07T14:16:54;1.60;;;0.80;;
23404;SDS011;11875;49.356;2.718;2023-08-07T14:19:22;1.65;;;0.80;;
23404;SDS011;11875;49.356;2.718;2023-08-07T14:21:48;2.03;;;0.90;;
23404;SDS011;11875;49.356;2.718;2023-08-07T14:24:14;2.08;;;1.00;;
23404;SDS011;11875;49.356;2.718;2023-08-07T14:26:41;3.65;;;1.65;;
23404;SDS011;11875;49.356;2.718;2023-08-07T14:29:06;3.42;;;0.75;;
23404;SDS011;11875;49.356;2.718;2023-08-07T14:31:32;1.27;;;0.77;;
23404;SDS011;11875;49.356;2.718;2023-08-07T14:33:58;3.47;;;0.88;;
23404;SDS011;11875;49.356;2.718;2023-08-07T14:36:23;1.10;;;0.80;;
23404;SDS011;11875;49.356;2.718;2023-08-07T14:38:49;3.05;;;1.02;;
23404;SDS011;11875;49.356;2.718;2023-08-07T14:41:15;2.22;;;1.10;;
23404;SDS011;11875;49.356;2.718;2023-08-07T14:43:40;0.85;;;0.70;;
23404;SDS011;11875;49.356;2.718;2023-08-07T14:46:06;2.53;;;0.75;;
23404;SDS011;11875;49.356;2.718;2023-08-07T14:48:31;1.42;;;0.82;;
23404;SDS011;11875;49.356;2.718;2023-08-07T14:50:57;0.75;;;0.63;;
23404;SDS011;11875;49.356;2.718;2023-08-07T14:53:22;1.23;;;0.90;;